Time;durP1;ratioP1;P1;durP2;ratioP2;P2;SDS_P1;SDS_P2;PMS_P1;PMS_P2;Temp;Humidity;BMP_temperature;BMP_pressure;BME280_temperature;BME280_humidity;BME280_pressure;Samples;Min_cycle;Max_cycle;Signal;HPM_P1;HPM_P2
2021/01/29 00:01:18;;;;;;;13.93;8.70;;;5.20;90.10;;;;;;4989206;28;20343;-90
2021/01/29 00:03:44;;;;;;;17.38;7.07;;;5.10;90.00;;;;;;4996653;28;20034;-88
2021/01/29 00:06:10;;;;;;;12.30;6.60;;;5.00;90.00;;;;;;4995976;28;20053;-90
2021/01/29 00:08:36;;;;;;;11.38;6.90;;;5.10;90.00;;;;;;4986466;28;20026;-89
2021/01/29 00:11:03;;;;;;;12.38;5.22;;;5.20;90.10;;;;;;4991797;28;20038;-88
2021/01/29 00:13:33;;;;;;;5.95;3.97;;;5.30;90.10;;;;;;4987436;28;20031;-89
2021/01/29 00:15:59;;;;;;;38.38;12.13;;;5.30;90.00;;;;;;5012332;28;20217;-89
2021/01/29 00:18:25;;;;;;;28.70;10.93;;;5.30;89.80;;;;;;4990909;28;20026;-89
2021/01/29 00:20:51;;;;;;;15.40;7.75;;;5.20;89.80;;;;;;4984359;28;20046;-89
2021/01/29 00:23:18;;;;;;;19.10;7.03;;;5.10;90.00;;;;;;4978610;28;20035;-89
2021/01/29 00:25:52;;;;;;;19.13;10.13;;;5.20;90.10;;;;;;4986862;28;20046;-88
2021/01/29 00:28:19;;;;;;;29.67;9.88;;;5.10;90.10;;;;;;4986961;28;20037;-88
2021/01/29 00:30:45;;;;;;;36.45;11.32;;;5.30;90.10;;;;;;4987527;28;20117;-89
2021/01/29 00:33:13;;;;;;;16.67;8.80;;;5.10;90.10;;;;;;4992082;28;20026;-89
2021/01/29 00:35:40;;;;;;;17.98;9.52;;;5.10;90.10;;;;;;4993628;28;20054;-89
2021/01/29 00:38:07;;;;;;;18.10;9.32;;;5.10;90.10;;;;;;4992708;28;20479;-90
2021/01/29 00:40:34;;;;;;;21.17;10.70;;;5.10;90.20;;;;;;4993135;28;20113;-90
2021/01/29 00:43:00;;;;;;;19.73;9.85;;;5.10;90.20;;;;;;4984763;28;20549;-90
2021/01/29 00:45:29;;;;;;;102.50;12.18;;;5.00;90.20;;;;;;4992440;28;20032;-89
2021/01/29 00:47:55;;;;;;;18.10;11.25;;;5.00;90.40;;;;;;4993192;28;20080;-90
2021/01/29 00:50:21;;;;;;;17.63;10.32;;;4.90;90.40;;;;;;4991685;28;20034;-90
2021/01/29 00:52:47;;;;;;;27.45;9.15;;;4.90;90.50;;;;;;4991597;28;20038;-89
2021/01/29 00:55:14;;;;;;;17.15;10.00;;;4.90;90.60;;;;;;4988528;28;20050;-90
2021/01/29 00:57:44;;;;;;;31.90;8.38;;;5.00;90.60;;;;;;4992185;28;20060;-90
2021/01/29 01:00:13;;;;;;;21.42;9.20;;;4.90;90.70;;;;;;4992681;28;20058;-89
2021/01/29 01:02:38;;;;;;;33.20;8.35;;;5.00;90.70;;;;;;4993089;28;20041;-89
2021/01/29 01:05:05;;;;;;;25.98;11.02;;;4.90;90.70;;;;;;4994730;28;20026;-89
2021/01/29 01:07:31;;;;;;;16.38;10.07;;;5.00;90.80;;;;;;4993768;28;20077;-89
2021/01/29 01:09:57;;;;;;;117.45;12.75;;;5.00;90.80;;;;;;4993876;28;20030;-89
2021/01/29 01:12:23;;;;;;;25.65;10.05;;;5.00;90.80;;;;;;4999715;28;20034;-89
2021/01/29 01:14:49;;;;;;;30.42;8.93;;;5.00;90.80;;;;;;5002607;28;20078;-89
2021/01/29 01:17:15;;;;;;;40.67;8.48;;;5.00;90.90;;;;;;5005815;28;20022;-89
2021/01/29 01:19:41;;;;;;;17.92;7.80;;;5.00;90.80;;;;;;5011589;28;20032;-89
2021/01/29 01:22:07;;;;;;;13.98;7.22;;;5.00;90.80;;;;;;5012516;28;20090;-89
2021/01/29 01:24:39;;;;;;;25.10;9.15;;;5.10;90.80;;;;;;5003001;28;20491;-88
2021/01/29 01:29:42;;;;;;;30.70;10.98;;;5.10;90.80;;;;;;5102790;22;20049;-88
2021/01/29 01:32:07;;;;;;;34.28;11.50;;;5.10;90.80;;;;;;5009783;28;20044;-88
2021/01/29 01:34:33;;;;;;;45.60;10.88;;;5.10;90.80;;;;;;5021176;28;20030;-87
2021/01/29 01:37:00;;;;;;;36.92;9.23;;;5.20;90.90;;;;;;5006442;28;20037;-89
2021/01/29 01:39:26;;;;;;;18.95;7.57;;;5.10;90.80;;;;;;5012000;28;20036;-89
2021/01/29 01:41:53;;;;;;;16.27;8.02;;;5.20;90.80;;;;;;5014008;28;20029;-89
2021/01/29 01:44:42;;;;;;;22.73;9.57;;;5.40;90.90;;;;;;5014441;28;20030;-90
2021/01/29 01:47:27;;;;;;;20.70;9.73;;;5.20;90.80;;;;;;4999271;28;20410;-89
2021/01/29 01:49:59;;;;;;;48.78;12.05;;;5.20;90.80;;;;;;5009779;28;20022;-90
2021/01/29 01:52:37;;;;;;;23.85;7.38;;;5.30;90.90;;;;;;5015577;28;20124;-90
2021/01/29 01:55:10;;;;;;;28.83;11.35;;;5.20;90.90;;;;;;4993490;28;20041;-89
2021/01/29 01:57:37;;;;;;;22.42;9.50;;;5.30;90.90;;;;;;5011434;28;20026;-89
2021/01/29 02:00:13;;;;;;;16.38;8.10;;;5.20;90.90;;;;;;5002067;28;20022;-89
2021/01/29 02:02:43;;;;;;;18.40;9.43;;;5.30;90.90;;;;;;5015235;28;20053;-89
2021/01/29 02:05:15;;;;;;;20.65;10.23;;;5.30;90.90;;;;;;5011199;28;20030;-90
2021/01/29 02:07:54;;;;;;;30.00;9.75;;;5.30;91.00;;;;;;5012032;28;20565;-90
2021/01/29 02:10:24;;;;;;;17.42;8.20;;;5.40;91.00;;;;;;5004026;28;20033;-90
2021/01/29 02:12:50;;;;;;;71.40;12.43;;;5.40;90.90;;;;;;5011519;28;20125;-88
2021/01/29 02:15:22;;;;;;;35.22;9.45;;;5.40;90.90;;;;;;4993132;28;20109;-88
2021/01/29 02:18:25;;;;;;;15.93;8.88;;;5.40;91.00;;;;;;5010350;28;20029;-88
2021/01/29 02:21:22;;;;;;;11.25;5.10;;;5.40;91.00;;;;;;5008859;28;20034;-88
2021/01/29 02:24:25;;;;;;;13.05;7.43;;;5.50;91.00;;;;;;5008089;28;20040;-87
2021/01/29 02:27:01;;;;;;;21.08;10.05;;;5.50;91.00;;;;;;5010794;28;20057;-88
2021/01/29 02:30:04;;;;;;;21.02;7.68;;;5.60;91.00;;;;;;5007209;28;20114;-89
2021/01/29 02:32:51;;;;;;;18.92;8.18;;;5.50;91.00;;;;;;5028066;28;20061;-88
2021/01/29 02:35:36;;;;;;;12.45;7.72;;;5.50;91.00;;;;;;5012273;28;20033;-89
2021/01/29 02:38:20;;;;;;;21.15;8.20;;;5.60;91.00;;;;;;4980088;28;20493;-89
2021/01/29 02:40:49;;;;;;;29.83;10.43;;;5.60;91.00;;;;;;5006286;28;20018;-89
2021/01/29 02:43:36;;;;;;;9.25;5.65;;;5.60;91.00;;;;;;4995076;28;20030;-89
2021/01/29 02:46:18;;;;;;;51.92;12.93;;;5.70;91.00;;;;;;5007961;28;20030;-88
2021/01/29 02:48:58;;;;;;;69.33;10.07;;;5.70;91.00;;;;;;5009704;28;20510;-87
2021/01/29 02:51:52;;;;;;;11.02;6.78;;;5.90;91.00;;;;;;5005348;28;20308;-88
2021/01/29 02:54:22;;;;;;;23.80;9.50;;;5.80;91.20;;;;;;5000129;28;20029;-88
2021/01/29 02:56:59;;;;;;;15.00;6.18;;;5.90;91.00;;;;;;5010763;28;20073;-88
2021/01/29 02:59:36;;;;;;;39.08;10.27;;;5.90;90.90;;;;;;5014023;28;20021;-88
2021/01/29 03:02:07;;;;;;;72.95;11.50;;;6.00;90.90;;;;;;5010111;28;20631;-87
2021/01/29 03:04:40;;;;;;;30.77;10.50;;;6.10;90.90;;;;;;5009953;28;20028;-87
2021/01/29 03:07:13;;;;;;;9.05;5.60;;;6.00;90.80;;;;;;5013895;28;20026;-86
2021/01/29 03:09:46;;;;;;;15.32;7.47;;;6.10;90.80;;;;;;5017840;28;20032;-87
2021/01/29 03:12:23;;;;;;;28.65;8.43;;;6.10;90.80;;;;;;5019000;28;20088;-87
2021/01/29 03:14:56;;;;;;;18.10;6.30;;;6.10;90.90;;;;;;5005165;28;20490;-87
2021/01/29 03:17:32;;;;;;;9.05;4.53;;;6.10;90.90;;;;;;5015956;28;20030;-87
2021/01/29 03:20:10;;;;;;;25.80;8.52;;;6.20;90.90;;;;;;5019026;28;20042;-87
2021/01/29 03:22:48;;;;;;;18.02;5.75;;;6.20;90.90;;;;;;5023462;28;20030;-88
2021/01/29 03:25:20;;;;;;;15.13;6.88;;;6.30;90.90;;;;;;5024512;28;20003;-88
2021/01/29 03:27:51;;;;;;;18.27;6.53;;;6.30;90.80;;;;;;5038056;28;20017;-89
2021/01/29 03:30:23;;;;;;;20.40;7.45;;;6.40;90.80;;;;;;5006867;28;20018;-89
2021/01/29 03:32:52;;;;;;;14.80;9.15;;;6.40;90.90;;;;;;5021633;28;20033;-89
2021/01/29 03:35:37;;;;;;;25.92;9.43;;;6.50;91.00;;;;;;5037868;28;20030;-89
2021/01/29 03:38:15;;;;;;;23.38;7.13;;;6.50;91.10;;;;;;5015838;28;20046;-88
2021/01/29 03:40:45;;;;;;;17.70;7.00;;;6.50;91.00;;;;;;5022717;28;20479;-89
2021/01/29 03:43:26;;;;;;;16.75;5.70;;;6.60;90.90;;;;;;5025590;28;20099;-88
2021/01/29 03:46:17;;;;;;;14.38;5.57;;;6.60;90.90;;;;;;5024945;28;20025;-88
2021/01/29 03:48:56;;;;;;;13.48;6.57;;;6.60;90.90;;;;;;5004219;28;20037;-88
2021/01/29 03:51:46;;;;;;;10.52;5.85;;;6.70;90.90;;;;;;4994457;28;20026;-88
2021/01/29 03:54:29;;;;;;;19.17;6.43;;;6.80;90.90;;;;;;5002625;28;20025;-88
2021/01/29 03:57:03;;;;;;;8.50;4.13;;;6.80;90.80;;;;;;5015318;28;20022;-89
2021/01/29 03:59:49;;;;;;;13.70;5.80;;;6.90;90.80;;;;;;4999395;28;20029;-89
2021/01/29 04:02:52;;;;;;;8.73;4.53;;;7.00;90.80;;;;;;5010879;28;20613;-88
2021/01/29 04:05:40;;;;;;;18.95;6.07;;;6.90;90.70;;;;;;4999617;28;20041;-88
2021/01/29 04:08:17;;;;;;;38.03;8.80;;;7.00;90.70;;;;;;5018544;28;20029;-87
2021/01/29 04:10:46;;;;;;;46.13;7.10;;;7.00;90.70;;;;;;5021725;28;20045;-88
2021/01/29 04:13:23;;;;;;;27.75;7.70;;;6.90;90.70;;;;;;5002834;28;20557;-88
2021/01/29 04:15:53;;;;;;;13.82;5.63;;;6.90;90.70;;;;;;5020310;28;20108;-89
2021/01/29 04:18:27;;;;;;;22.40;6.22;;;6.90;90.80;;;;;;5013810;28;20051;-89
2021/01/29 04:21:03;;;;;;;8.85;5.20;;;7.00;90.80;;;;;;5000079;28;20029;-90
2021/01/29 04:23:43;;;;;;;19.92;6.15;;;7.00;90.80;;;;;;5018705;28;20609;-90
2021/01/29 04:26:16;;;;;;;15.60;5.65;;;7.00;90.90;;;;;;5004105;28;20536;-89
2021/01/29 04:28:45;;;;;;;18.00;5.75;;;7.00;90.90;;;;;;5012797;28;20079;-89
2021/01/29 04:31:15;;;;;;;23.27;5.40;;;7.10;90.90;;;;;;4999092;28;20518;-89
2021/01/29 04:33:46;;;;;;;14.77;5.13;;;7.10;90.80;;;;;;4999164;28;20094;-90
2021/01/29 04:36:16;;;;;;;17.02;5.55;;;7.20;90.80;;;;;;5001067;28;20026;-90
2021/01/29 04:38:43;;;;;;;31.40;5.57;;;7.20;90.70;;;;;;5003308;28;20037;-89
2021/01/29 04:41:27;;;;;;;8.95;4.15;;;7.20;90.70;;;;;;5016829;28;20040;-89
2021/01/29 04:44:00;;;;;;;10.35;3.90;;;7.30;90.70;;;;;;5013486;28;20026;-90
2021/01/29 04:46:52;;;;;;;13.25;3.55;;;7.40;90.60;;;;;;5004270;28;20045;-90
2021/01/29 04:49:53;;;;;;;4.53;2.83;;;7.50;90.60;;;;;;4997633;28;20042;-89
2021/01/29 04:52:52;;;;;;;5.82;3.95;;;7.50;90.50;;;;;;5012826;28;20038;-88
2021/01/29 04:55:40;;;;;;;7.18;4.70;;;7.60;90.50;;;;;;4997624;28;20113;-89
2021/01/29 04:58:11;;;;;;;4.95;3.65;;;7.60;90.40;;;;;;4996868;28;20044;-89
2021/01/29 05:00:57;;;;;;;5.75;3.95;;;7.60;90.40;;;;;;5009801;28;20032;-88
2021/01/29 05:03:51;;;;;;;4.47;3.33;;;7.70;90.40;;;;;;4998382;28;20061;-88
2021/01/29 05:06:27;;;;;;;5.40;3.78;;;7.80;90.40;;;;;;5020642;28;20074;-89
2021/01/29 05:09:30;;;;;;;7.47;5.18;;;7.80;90.30;;;;;;5023703;28;20034;-89
2021/01/29 05:12:19;;;;;;;6.53;4.30;;;7.80;90.30;;;;;;5016066;28;20022;-89
2021/01/29 05:15:06;;;;;;;10.05;5.72;;;7.90;90.30;;;;;;5020708;28;20010;-88
2021/01/29 05:17:56;;;;;;;9.05;5.40;;;7.90;90.30;;;;;;5028058;28;20038;-88
2021/01/29 05:20:40;;;;;;;6.45;4.75;;;7.90;90.30;;;;;;5032487;28;20030;-90
2021/01/29 05:23:24;;;;;;;6.13;4.63;;;8.00;90.20;;;;;;5029606;28;20037;-90
2021/01/29 05:26:16;;;;;;;8.45;4.85;;;8.00;90.30;;;;;;5021314;28;20040;-87
2021/01/29 05:28:59;;;;;;;15.48;10.05;;;8.00;90.30;;;;;;5040311;28;20040;-90
2021/01/29 05:31:34;;;;;;;7.07;4.95;;;8.10;90.40;;;;;;5048968;28;20032;-91
2021/01/29 05:34:14;;;;;;;6.25;4.32;;;8.10;90.40;;;;;;5034809;28;20052;-90
2021/01/29 05:36:58;;;;;;;6.10;4.05;;;8.20;90.50;;;;;;5027143;28;20034;-92
2021/01/29 05:39:41;;;;;;;12.25;6.70;;;8.30;90.40;;;;;;4997813;28;20029;-91
2021/01/29 05:42:36;;;;;;;11.20;5.68;;;8.30;90.40;;;;;;5014059;28;20030;-92
2021/01/29 05:45:02;;;;;;;16.05;6.18;;;8.30;90.40;;;;;;5018590;28;20053;-92
2021/01/29 05:47:50;;;;;;;16.73;5.18;;;8.30;90.50;;;;;;4996918;28;20026;-91
2021/01/29 05:50:35;;;;;;;11.52;5.15;;;8.40;90.50;;;;;;4994050;28;20041;-90
2021/01/29 05:53:38;;;;;;;7.63;3.92;;;8.40;90.50;;;;;;5013435;28;20069;-92
2021/01/29 05:56:28;;;;;;;6.22;4.57;;;8.50;90.50;;;;;;5013370;28;20033;-90
2021/01/29 05:59:23;;;;;;;5.82;4.35;;;8.50;90.40;;;;;;5012250;28;20018;-91
2021/01/29 06:02:24;;;;;;;6.03;4.03;;;8.60;90.40;;;;;;4992879;28;20021;-92
2021/01/29 06:05:27;;;;;;;4.93;3.83;;;8.60;90.40;;;;;;5216667;22;20069;-90
2021/01/29 06:08:30;;;;;;;5.38;3.85;;;8.70;90.40;;;;;;4992659;28;20030;-90
2021/01/29 06:11:25;;;;;;;5.65;4.25;;;8.70;90.40;;;;;;4977085;28;20038;-91
2021/01/29 06:14:36;;;;;;;6.20;4.35;;;8.70;90.50;;;;;;4992233;28;20026;-90
2021/01/29 06:17:19;;;;;;;4.70;3.50;;;8.80;90.60;;;;;;4982662;28;20581;-89
2021/01/29 06:20:06;;;;;;;4.35;3.17;;;8.80;90.60;;;;;;4999476;28;20026;-89
2021/01/29 06:22:55;;;;;;;5.50;4.45;;;8.90;90.50;;;;;;4994787;28;20030;-89
2021/01/29 06:25:49;;;;;;;6.68;5.28;;;8.90;90.50;;;;;;5002088;28;20121;-88
2021/01/29 06:28:27;;;;;;;6.00;4.47;;;9.00;90.60;;;;;;4983089;28;20041;-88
2021/01/29 06:31:12;;;;;;;5.88;4.20;;;9.00;90.60;;;;;;4991235;28;20044;-86
2021/01/29 06:34:06;;;;;;;5.70;4.38;;;9.10;90.60;;;;;;4992025;28;20018;-86
2021/01/29 06:36:49;;;;;;;5.38;3.83;;;9.10;90.60;;;;;;5001556;28;20030;-87
2021/01/29 06:39:35;;;;;;;5.30;3.90;;;9.10;90.60;;;;;;4978085;28;20030;-87
2021/01/29 06:42:18;;;;;;;5.20;4.10;;;9.20;90.80;;;;;;4993789;28;20054;-88
2021/01/29 06:45:02;;;;;;;4.20;3.33;;;9.20;90.70;;;;;;4982900;28;20422;-87
2021/01/29 06:47:55;;;;;;;4.88;3.40;;;9.20;90.60;;;;;;5004720;28;20056;-85
2021/01/29 06:50:27;;;;;;;4.50;3.13;;;9.20;90.70;;;;;;5001387;28;20038;-87
2021/01/29 06:53:33;;;;;;;5.57;3.97;;;9.30;90.70;;;;;;5001856;28;20133;-88
2021/01/29 06:56:39;;;;;;;3.78;3.10;;;9.30;90.70;;;;;;4979405;28;20049;-87
2021/01/29 06:59:13;;;;;;;4.95;3.78;;;9.30;90.70;;;;;;4973309;28;20094;-89
2021/01/29 07:02:26;;;;;;;4.78;3.10;;;9.30;90.70;;;;;;5007942;28;20091;-88
2021/01/29 07:05:15;;;;;;;4.88;3.97;;;9.30;90.70;;;;;;4980306;28;20046;-88
2021/01/29 07:08:03;;;;;;;2.90;2.40;;;9.30;90.70;;;;;;5019647;28;20034;-88
2021/01/29 07:10:53;;;;;;;3.75;2.70;;;9.30;90.70;;;;;;4984556;28;20062;-89
2021/01/29 07:13:40;;;;;;;3.35;2.83;;;9.30;90.70;;;;;;5004550;28;20040;-88
2021/01/29 07:16:36;;;;;;;3.35;2.58;;;9.30;90.60;;;;;;5007827;28;20019;-87
2021/01/29 07:19:21;;;;;;;4.32;3.03;;;9.30;90.60;;;;;;5007992;28;20065;-88
2021/01/29 07:22:14;;;;;;;3.88;2.50;;;9.30;90.60;;;;;;5021830;28;20034;-92
2021/01/29 07:25:00;;;;;;;4.53;3.80;;;9.30;90.60;;;;;;5002343;28;20031;-93
2021/01/29 07:27:34;;;;;;;4.53;3.17;;;9.40;90.60;;;;;;5008686;28;20038;-91
2021/01/29 07:30:27;;;;;;;4.10;2.90;;;9.40;90.60;;;;;;5006997;28;20018;-90
2021/01/29 07:33:14;;;;;;;4.25;3.00;;;9.40;90.60;;;;;;5005890;28;20118;-94
2021/01/29 07:35:49;;;;;;;3.97;3.00;;;9.40;90.60;;;;;;4977973;28;20027;-93
2021/01/29 07:38:43;;;;;;;6.35;3.95;;;9.40;90.60;;;;;;4998252;28;20046;-94
2021/01/29 07:41:33;;;;;;;5.22;3.42;;;9.40;90.60;;;;;;4997221;28;20037;-94
2021/01/29 07:44:40;;;;;;;4.10;2.65;;;9.40;90.60;;;;;;4992972;28;20421;-90
2021/01/29 07:47:36;;;;;;;5.43;3.85;;;9.40;90.60;;;;;;4975478;28;20044;-89
2021/01/29 07:50:11;;;;;;;6.53;4.13;;;9.40;90.60;;;;;;4983963;28;20502;-87
2021/01/29 07:52:50;;;;;;;3.17;2.72;;;9.40;90.60;;;;;;4979281;28;20026;-87
2021/01/29 07:55:25;;;;;;;5.25;2.78;;;9.40;90.60;;;;;;4984125;28;20014;-85
2021/01/29 07:58:12;;;;;;;4.78;2.60;;;9.40;90.60;;;;;;5002925;28;20206;-86
2021/01/29 08:01:02;;;;;;;4.47;2.20;;;9.40;90.60;;;;;;5007505;28;20235;-87
2021/01/29 08:03:53;;;;;;;3.72;2.05;;;9.40;90.60;;;;;;5020100;28;20023;-87
2021/01/29 08:06:41;;;;;;;2.17;1.98;;;9.50;90.60;;;;;;5016993;28;20496;-87
2021/01/29 08:09:30;;;;;;;3.05;1.70;;;9.50;90.60;;;;;;4997462;28;20026;-88
2021/01/29 08:12:09;;;;;;;;;;;;;;;;;;;;;
2021/01/29 08:14:56;;;;;;;3.72;2.00;;;9.50;90.50;;;;;;5001432;28;20026;-86
2021/01/29 08:17:49;;;;;;;2.10;1.80;;;9.50;90.60;;;;;;5000342;28;20586;-87
2021/01/29 08:20:31;;;;;;;3.25;2.10;;;9.50;90.60;;;;;;4988998;28;20045;-89
2021/01/29 08:23:07;;;;;;;2.88;1.90;;;9.50;90.50;;;;;;5004942;28;20045;-86
2021/01/29 08:26:15;;;;;;;1.95;1.70;;;9.50;90.50;;;;;;4998197;28;20094;-90
2021/01/29 08:29:07;;;;;;;2.97;2.10;;;9.50;90.60;;;;;;4965489;28;20476;-88
2021/01/29 08:31:52;;;;;;;2.97;2.38;;;9.60;90.60;;;;;;4984536;28;20034;-93
2021/01/29 08:34:18;;;;;;;5.97;2.53;;;9.60;90.60;;;;;;5028098;28;20089;-91
2021/01/29 08:37:23;;;;;;;4.18;3.00;;;9.60;90.50;;;;;;5025004;28;20034;-92
2021/01/29 08:40:33;;;;;;;4.57;2.60;;;9.60;90.50;;;;;;5035256;28;20065;-87
2021/01/29 08:43:28;;;;;;;4.50;2.50;;;9.60;90.50;;;;;;4994854;28;20030;-85
2021/01/29 08:46:12;;;;;;;4.00;3.03;;;9.60;90.50;;;;;;4999355;28;20026;-84
2021/01/29 08:49:15;;;;;;;3.95;2.50;;;9.60;90.60;;;;;;4991885;28;20057;-86
2021/01/29 08:52:13;;;;;;;6.35;2.30;;;9.70;90.60;;;;;;5015850;28;20088;-87
2021/01/29 08:54:53;;;;;;;6.20;2.50;;;9.70;90.60;;;;;;4994612;28;20553;-84
2021/01/29 08:57:50;;;;;;;6.38;2.30;;;9.70;90.60;;;;;;5000777;28;20072;-86
2021/01/29 09:00:27;;;;;;;4.15;2.00;;;9.70;90.60;;;;;;5001686;28;20041;-85
2021/01/29 09:03:02;;;;;;;5.50;1.73;;;9.70;90.60;;;;;;4996370;28;20030;-86
2021/01/29 09:05:32;;;;;;;6.75;2.47;;;9.80;90.60;;;;;;4992288;28;20057;-86
2021/01/29 09:08:04;;;;;;;6.13;1.63;;;9.70;90.60;;;;;;4999553;28;20117;-87
2021/01/29 09:10:32;;;;;;;;;;;9.70;90.60;;;;;;5002946;28;20478;-86
2021/01/29 09:13:10;;;;;;;4.15;1.88;;;9.80;90.50;;;;;;5012754;28;19956;-88
2021/01/29 09:15:59;;;;;;;5.72;2.00;;;9.70;90.50;;;;;;5008068;28;20054;-90
2021/01/29 09:18:55;;;;;;;8.25;2.05;;;9.80;90.60;;;;;;4999033;28;20054;-89
2021/01/29 09:21:28;;;;;;;9.25;2.35;;;9.70;90.50;;;;;;4982308;28;20030;-86
2021/01/29 09:24:18;;;;;;;6.03;2.20;;;9.70;90.50;;;;;;4979864;28;20031;-87
2021/01/29 09:27:06;;;;;;;9.20;2.40;;;9.70;90.60;;;;;;4990619;28;20128;-85
2021/01/29 09:29:42;;;;;;;7.18;2.22;;;9.70;90.60;;;;;;4993611;28;20101;-87
2021/01/29 09:32:13;;;;;;;8.23;2.22;;;9.70;90.60;;;;;;4987164;28;20033;-86
2021/01/29 09:34:43;;;;;;;6.65;2.80;;;9.70;90.60;;;;;;4983013;28;20052;-86
2021/01/29 09:37:13;;;;;;;8.20;2.28;;;9.70;90.60;;;;;;4971126;28;20034;-88
2021/01/29 09:39:47;;;;;;;8.35;2.60;;;9.60;90.50;;;;;;4988602;28;20167;-87
2021/01/29 09:42:24;;;;;;;9.23;2.70;;;9.60;90.50;;;;;;4971979;28;20130;-87
2021/01/29 09:45:01;;;;;;;10.73;2.65;;;9.50;90.50;;;;;;4982855;28;20031;-86
2021/01/29 09:47:28;;;;;;;10.43;2.72;;;9.50;90.50;;;;;;4985394;28;20494;-87
2021/01/29 09:50:03;;;;;;;14.50;3.25;;;9.50;90.50;;;;;;4991627;28;20101;-87
2021/01/29 09:52:47;;;;;;;12.95;2.75;;;9.50;90.50;;;;;;4987455;28;20038;-87
2021/01/29 10:02:19;;;;;;;17.85;4.15;;;9.40;90.50;;;;;;5158002;22;20066;-85
2021/01/29 10:04:58;;;;;;;16.65;3.28;;;9.40;90.60;;;;;;4983158;28;20037;-86
2021/01/29 10:11:16;;;;;;;17.10;3.45;;;9.40;90.50;;;;;;4973350;28;20122;-88
2021/01/29 10:14:19;;;;;;;;;;;;;;;;;;;;;
2021/01/29 10:17:13;;;;;;;17.98;3.83;;;9.40;90.40;;;;;;4960391;28;20057;-85
2021/01/29 10:23:16;;;;;;;22.63;4.78;;;9.50;90.30;;;;;;5011166;28;20061;-87
2021/01/29 10:26:20;;;;;;;13.07;3.50;;;9.40;90.20;;;;;;5008981;28;20039;-88
2021/01/29 10:33:05;;;;;;;22.10;4.25;;;9.50;90.20;;;;;;4985383;28;20058;-85
2021/01/29 10:35:35;;;;;;;;;;;9.50;90.10;;;;;;4978330;28;20038;-88
2021/01/29 10:44:28;;;;;;;16.35;3.28;;;9.60;90.00;;;;;;5153101;22;20054;-87
2021/01/29 10:47:19;;;;;;;18.48;4.18;;;9.70;90.00;;;;;;5011713;28;20020;-86
2021/01/29 10:49:50;;;;;;;16.30;3.25;;;9.70;89.80;;;;;;4996838;28;20120;-84
2021/01/29 11:02:49;;;;;;;18.92;3.90;;;9.90;89.30;;;;;;4986326;28;20073;-87
2021/01/29 11:14:28;;;;;;;15.13;3.72;;;10.20;88.90;;;;;;5021799;23;20081;-85
2021/01/29 11:17:22;;;;;;;18.77;3.33;;;10.20;88.60;;;;;;4982449;28;20034;-87
2021/01/29 11:20:22;;;;;;;17.65;3.75;;;10.20;88.50;;;;;;4979864;28;20046;-84
2021/01/29 11:26:40;;;;;;;19.92;3.70;;;10.40;88.20;;;;;;4992613;28;20043;-92
2021/01/29 11:29:38;;;;;;;12.48;2.72;;;10.40;88.10;;;;;;4993944;28;20038;-92
2021/01/29 11:32:35;;;;;;;18.08;3.53;;;10.40;88.10;;;;;;5002382;28;20030;-93
2021/01/29 11:35:30;;;;;;;13.73;3.00;;;10.40;88.00;;;;;;4996773;28;20035;-91
2021/01/29 11:38:37;;;;;;;18.05;3.28;;;10.50;87.80;;;;;;5002064;22;20148;-91
2021/01/29 11:41:40;;;;;;;11.10;2.40;;;10.50;87.70;;;;;;5013119;28;20037;-90
2021/01/29 12:07:00;;;;;;;15.05;3.40;;;10.50;87.10;;;;;;5031891;22;20085;-88
2021/01/29 12:13:52;;;;;;;;;;;;;;;;;;;;;
2021/01/29 12:28:54;;;;;;;14.30;2.92;;;10.60;86.40;;;;;;5168570;22;20526;-88
2021/01/29 12:31:58;;;;;;;10.50;2.60;;;10.60;86.40;;;;;;4989931;28;20125;-88
2021/01/29 12:34:59;;;;;;;13.15;3.20;;;10.60;86.50;;;;;;4990016;28;20041;-84
2021/01/29 12:37:34;;;;;;;17.15;3.28;;;10.70;86.40;;;;;;4987896;28;20089;-89
2021/01/29 12:40:29;;;;;;;13.10;2.97;;;10.70;86.30;;;;;;4989256;28;20440;-86
2021/01/29 12:46:39;;;;;;;15.85;2.67;;;10.70;86.20;;;;;;5089883;22;20099;-86
2021/01/29 12:59:46;;;;;;;16.13;3.30;;;10.50;85.90;;;;;;5006668;28;20084;-86
2021/01/29 13:02:50;;;;;;;7.70;1.90;;;10.60;85.90;;;;;;5006964;28;20172;-86
2021/01/29 13:09:20;;;;;;;9.73;2.00;;;10.50;85.80;;;;;;5006381;28;20095;-86
2021/01/29 13:12:31;;;;;;;8.32;2.13;;;10.50;85.80;;;;;;5008336;28;20053;-86
2021/01/29 13:18:29;;;;;;;8.88;2.10;;;10.40;85.90;;;;;;5116300;22;20046;-86
2021/01/29 13:21:05;;;;;;;10.30;2.30;;;10.40;86.00;;;;;;4973759;28;20041;-84
2021/01/29 13:23:40;;;;;;;10.20;2.33;;;10.30;86.10;;;;;;5006478;28;20147;-86
2021/01/29 13:26:39;;;;;;;8.23;2.03;;;10.30;86.20;;;;;;4990441;28;20038;-85
2021/01/29 13:29:21;;;;;;;9.25;2.10;;;10.20;86.30;;;;;;5004158;28;20024;-84
2021/01/29 13:31:48;;;;;;;;;;;10.20;86.40;;;;;;5172871;22;20077;-87
2021/01/29 13:34:16;;;;;;;9.10;2.33;;;10.30;86.40;;;;;;4978643;28;20383;-83
2021/01/29 13:37:20;;;;;;;10.40;2.05;;;10.30;86.50;;;;;;4978714;28;20042;-85
2021/01/29 13:39:50;;;;;;;8.95;1.95;;;10.30;86.50;;;;;;4968901;28;20038;-85
2021/01/29 13:43:01;;;;;;;13.55;2.35;;;10.40;86.60;;;;;;4978699;28;20129;-85
2021/01/29 13:45:31;;;;;;;7.20;1.80;;;10.40;86.60;;;;;;4969875;28;20046;-84
2021/01/29 13:48:09;;;;;;;9.45;2.38;;;10.80;86.70;;;;;;4944130;28;20038;-85
2021/01/29 13:54:21;;;;;;;13.32;2.65;;;10.80;85.90;;;;;;4999829;23;20060;-85
2021/01/29 13:57:08;;;;;;;6.53;1.90;;;10.80;85.70;;;;;;5002758;28;20029;-85
2021/01/29 15:39:22;;;;;;;8.07;2.10;;;10.40;84.70;;;;;;5672405;22;20061;-86
2021/01/29 15:47:50;;;;;;;11.00;2.20;;;10.30;84.80;;;;;;6153531;22;20084;-89
2021/01/29 15:50:53;;;;;;;10.10;2.40;;;10.30;84.80;;;;;;4997081;28;20030;-89
2021/01/29 15:56:20;;;;;;;6.60;1.63;;;10.30;84.80;;;;;;5203328;22;20137;-89
2021/01/29 15:58:55;;;;;;;11.02;2.15;;;10.30;84.80;;;;;;4994729;28;20030;-90
2021/01/29 16:03:56;;;;;;;10.70;2.75;;;10.40;84.80;;;;;;4994193;28;20085;-82
2021/01/29 16:06:46;;;;;;;10.32;2.10;;;10.30;84.70;;;;;;4999759;28;20042;-83
2021/01/29 16:09:35;;;;;;;10.70;2.55;;;10.30;84.70;;;;;;4999277;28;20655;-85
2021/01/29 16:12:38;;;;;;;11.20;2.38;;;10.30;84.60;;;;;;4997600;28;20661;-84
2021/01/29 16:15:09;;;;;;;;;;;10.30;84.60;;;;;;4996213;28;20031;-82
2021/01/29 16:17:45;;;;;;;7.40;1.95;;;10.30;84.40;;;;;;4998668;28;19912;-83
2021/01/29 16:20:22;;;;;;;10.63;2.28;;;10.20;84.60;;;;;;5004674;28;20049;-83
2021/01/29 16:22:55;;;;;;;8.43;2.20;;;10.20;84.60;;;;;;5000421;28;20085;-83
2021/01/29 16:25:20;;;;;;;;;;;10.30;84.70;;;;;;5015663;28;20150;-82
2021/01/29 16:27:49;;;;;;;8.02;2.10;;;10.20;84.50;;;;;;5005685;28;19914;-83
2021/01/29 16:30:24;;;;;;;10.55;2.50;;;10.20;84.60;;;;;;5004976;28;20033;-84
2021/01/29 16:32:50;;;;;;;8.10;2.42;;;10.20;84.60;;;;;;4992601;28;20067;-82
2021/01/29 16:35:38;;;;;;;10.18;2.20;;;10.20;84.40;;;;;;4992002;28;20026;-83
2021/01/29 16:38:04;;;;;;;10.88;2.63;;;10.20;84.50;;;;;;4996767;28;20034;-84
2021/01/29 16:40:39;;;;;;;7.72;2.13;;;10.20;84.40;;;;;;4996998;28;20017;-84
2021/01/29 16:43:14;;;;;;;7.22;2.10;;;10.20;84.40;;;;;;4996115;28;20026;-83
2021/01/29 16:45:45;;;;;;;8.43;2.33;;;10.20;84.40;;;;;;4992436;28;20022;-83
2021/01/29 16:48:27;;;;;;;10.10;3.47;;;10.20;84.30;;;;;;4994872;28;20042;-89
2021/01/29 16:51:17;;;;;;;8.53;2.53;;;10.20;84.30;;;;;;4991438;28;20035;-88
2021/01/29 16:53:45;;;;;;;10.55;3.08;;;10.20;84.30;;;;;;4992863;28;20778;-88
2021/01/29 16:56:24;;;;;;;8.15;2.10;;;10.20;84.20;;;;;;4992079;28;20060;-87
2021/01/29 16:59:16;;;;;;;11.25;2.40;;;10.20;84.20;;;;;;4989127;28;20098;-88
2021/01/29 17:01:44;;;;;;;9.88;2.03;;;10.20;84.20;;;;;;4998037;28;20055;-87
2021/01/29 17:04:12;;;;;;;11.25;2.28;;;10.10;84.00;;;;;;5004185;28;20045;-87
2021/01/29 17:06:55;;;;;;;8.23;2.50;;;10.10;84.00;;;;;;5008143;28;20440;-88
2021/01/29 17:14:44;;;;;;;8.73;2.40;;;10.10;84.00;;;;;;5073497;22;20118;-88
2021/01/29 17:19:53;;;;;;;10.13;2.55;;;10.00;84.00;;;;;;5014851;28;20058;-87
2021/01/29 17:22:36;;;;;;;9.10;3.05;;;10.00;84.00;;;;;;5025326;28;20034;-86
2021/01/29 17:25:43;;;;;;;6.60;2.38;;;10.00;83.90;;;;;;5017465;28;20052;-86
2021/01/29 17:28:17;;;;;;;9.20;2.28;;;10.00;84.00;;;;;;5012764;22;20153;-86
2021/01/29 17:30:43;;;;;;;6.97;2.58;;;10.00;84.00;;;;;;5021471;28;20061;-87
2021/01/29 17:33:31;;;;;;;7.22;2.20;;;10.00;83.70;;;;;;5012282;28;20116;-85
2021/01/29 17:39:38;;;;;;;8.77;2.50;;;10.00;83.70;;;;;;5733410;22;20081;-87
2021/01/29 17:42:33;;;;;;;7.10;1.95;;;9.90;83.60;;;;;;4994557;28;20022;-87
2021/01/29 17:45:29;;;;;;;8.43;2.58;;;9.90;83.50;;;;;;4981683;28;20363;-87
2021/01/29 17:48:45;;;;;;;6.88;2.25;;;9.90;83.50;;;;;;4998255;28;20038;-86
2021/01/29 17:51:43;;;;;;;7.97;2.15;;;9.90;83.30;;;;;;4948923;28;20055;-87
2021/01/29 17:54:26;;;;;;;11.27;2.83;;;9.90;83.10;;;;;;4975396;28;20031;-86
2021/01/29 17:57:34;;;;;;;6.30;2.40;;;9.90;82.90;;;;;;4981662;28;20063;-87
2021/01/29 18:00:24;;;;;;;6.18;2.40;;;9.90;82.80;;;;;;4975543;28;20027;-87
2021/01/29 18:03:22;;;;;;;9.75;2.88;;;9.90;82.60;;;;;;4975930;28;20464;-85